Time;durP1;ratioP1;P1;durP2;ratioP2;P2;SDS_P1;SDS_P2;PMS_P1;PMS_P2;Temp;Humidity;BMP_temperature;BMP_pressure;BME280_temperature;BME280_humidity;BME280_pressure;Samples;Min_cycle;Max_cycle;Signal;HPM_P1;HPM_P2
2023/06/15 00:00:26;;;;;;;;;;;;;;;30.18;26.59;94014.09;4986660;28;9010;-60
2023/06/15 00:03:08;;;;;;;;;;;;;;;30.17;25.67;94017.41;4990834;28;7152;-60
2023/06/15 00:05:43;;;;;;;;;;;;;;;30.14;25.83;94013.72;4984969;28;7155;-60
2023/06/15 00:08:17;;;;;;;;;;;;;;;30.13;26.59;94015.00;4985597;28;7008;-60
2023/06/15 00:10:58;;;;;;;;;;;;;;;30.13;26.63;94020.53;4984152;28;7311;-60
2023/06/15 00:13:26;;;;;;;;;;;;;;;30.13;26.28;94015.00;4984914;28;7318;-60
2023/06/15 00:15:52;;;;;;;;;;;;;;;30.14;26.40;94016.50;4984810;28;9151;-60
2023/06/15 00:18:19;;;;;;;;;;;;;;;30.12;25.46;94021.84;4999882;28;7204;-60
2023/06/15 00:20:50;;;;;;;;;;;;;;;30.11;26.23;94023.13;4990486;28;7353;-60
2023/06/15 00:23:40;;;;;;;;;;;;;;;30.11;26.44;94028.69;4991898;28;7311;-60
2023/06/15 00:26:05;;;;;;;;;;;;;;;30.09;25.33;94031.25;4997362;28;6909;-60
2023/06/15 00:28:31;;;;;;;;;;;;;;;30.10;26.24;94038.28;4996176;28;7041;-60
2023/06/15 00:31:00;;;;;;;;;;;;;;;30.10;26.08;94038.28;4977953;28;7101;-60
2023/06/15 00:33:26;;;;;;;;;;;;;;;30.10;25.58;94037.56;4980609;28;7459;-60
2023/06/15 00:35:52;;;;;;;;;;;;;;;30.08;26.61;94043.63;4980971;28;8850;-60
2023/06/15 00:38:30;;;;;;;;;;;;;;;30.06;26.65;94035.13;5001296;28;7588;-60
2023/06/15 00:41:03;;;;;;;;;;;;;;;30.08;25.79;94038.09;4984829;28;7417;-60
2023/06/15 00:43:31;;;;;;;;;;;;;;;30.07;26.30;94044.19;4983545;28;7016;-60
2023/06/15 00:46:05;;;;;;;;;;;;;;;30.06;26.60;94039.94;4986066;28;7030;-60
2023/06/15 00:48:41;;;;;;;;;;;;;;;30.06;26.22;94046.22;4987163;28;7138;-60
2023/06/15 00:51:10;;;;;;;;;;;;;;;30.05;25.59;94035.69;5002992;28;7699;-60
2023/06/15 00:53:40;;;;;;;;;;;;;;;30.03;26.39;94036.25;5000565;28;9403;-60
2023/06/15 00:56:21;;;;;;;;;;;;;;;30.02;25.54;94037.50;4989735;28;7277;-60
2023/06/15 00:58:53;;;;;;;;;;;;;;;30.00;25.40;94045.66;4987837;28;7040;-60
2023/06/15 01:01:32;;;;;;;;;;;;;;;29.99;26.25;94044.19;4980914;28;7141;-60
2023/06/15 01:03:59;;;;;;;;;;;;;;;30.00;25.78;94047.66;4973382;28;8788;-60
2023/06/15 01:06:52;;;;;;;;;;;;;;;29.99;26.70;94046.19;4986677;28;7059;-60
2023/06/15 01:09:23;;;;;;;;;;;;;;;29.99;25.59;94044.19;4985788;28;7305;-60
2023/06/15 01:12:05;;;;;;;;;;;;;;;29.98;25.71;94041.94;5001464;28;7322;-60
2023/06/15 01:14:41;;;;;;;;;;;;;;;29.98;25.73;94037.13;4981378;28;7035;-60
2023/06/15 01:17:28;;;;;;;;;;;;;;;29.97;26.67;94035.63;4998140;28;9054;-61
2023/06/15 01:20:07;;;;;;;;;;;;;;;29.96;25.88;94039.72;4991470;28;8714;-60
2023/06/15 01:23:13;;;;;;;;;;;;;;;29.94;25.61;94033.97;4978665;28;9034;-60
2023/06/15 01:25:53;;;;;;;;;;;;;;;29.94;25.70;94031.19;4949337;28;7043;-61
2023/06/15 01:28:30;;;;;;;;;;;;;;;29.93;25.83;94035.25;4982558;28;7131;-60
2023/06/15 01:31:04;;;;;;;;;;;;;;;29.90;26.17;94028.06;5000324;28;6996;-59
2023/06/15 01:33:48;;;;;;;;;;;;;;;29.91;26.54;94021.19;4999008;28;7281;-60
2023/06/15 01:36:18;;;;;;;;;;;;;;;29.89;26.10;94026.56;4986832;28;7282;-60
2023/06/15 01:38:48;;;;;;;;;;;;;;;29.90;25.40;94028.06;5001473;28;7287;-60
2023/06/15 01:41:17;;;;;;;;;;;;;;;29.88;26.02;94024.34;4981501;28;8652;-60
2023/06/15 01:44:05;;;;;;;;;;;;;;;29.88;25.33;94025.09;4979852;28;6985;-60
2023/06/15 01:46:52;;;;;;;;;;;;;;;29.87;25.41;94025.63;4997440;28;8749;-60
2023/06/15 01:49:25;;;;;;;;;;;;;;;29.85;25.92;94020.63;4992568;28;9054;-61
2023/06/15 01:52:02;;;;;;;;;;;;;;;29.85;26.41;94022.66;4981785;28;9709;-60
2023/06/15 01:54:43;;;;;;;;;;;;;;;29.84;26.45;94024.66;4984880;28;8017;-60
2023/06/15 01:57:10;;;;;;;;;;;;;;;29.83;26.38;94025.97;4985138;28;8954;-60
2023/06/15 01:59:43;;;;;;;;;;;;;;;29.83;26.45;94028.75;4983584;28;8555;-60
2023/06/15 02:02:09;;;;;;;;;;;;;;;29.83;25.91;94028.75;4986544;28;7060;-60
2023/06/15 02:04:36;;;;;;;;;;;;;;;29.81;25.96;94028.56;4988464;28;7148;-60
2023/06/15 02:07:26;;;;;;;;;;;;;;;29.80;25.58;94027.06;4984454;28;9371;-60
2023/06/15 02:09:53;;;;;;;;;;;;;;;29.79;25.83;94033.91;4983970;28;8711;-60
2023/06/15 02:12:37;;;;;;;;;;;;;;;29.76;25.76;94032.22;4995260;28;8661;-60
2023/06/15 02:15:19;;;;;;;;;;;;;;;29.74;25.77;94029.25;4986087;28;7154;-60
2023/06/15 02:17:59;;;;;;;;;;;;;;;29.74;25.79;94035.56;4996473;28;9057;-60
2023/06/15 02:20:28;;;;;;;;;;;;;;;29.76;26.42;94038.50;5001578;28;7044;-60
2023/06/15 02:22:57;;;;;;;;;;;;;;;29.72;26.37;94035.31;4984184;28;8019;-60
2023/06/15 02:25:24;;;;;;;;;;;;;;;29.75;25.41;94039.06;5000421;28;7104;-60
2023/06/15 02:27:51;;;;;;;;;;;;;;;29.74;26.52;94043.13;4987502;28;7509;-60
2023/06/15 02:30:20;;;;;;;;;;;;;;;29.74;25.62;94041.09;4997547;28;9134;-60
2023/06/15 02:32:52;;;;;;;;;;;;;;;29.76;25.69;94046.09;4997598;28;7256;-60
2023/06/15 02:35:23;;;;;;;;;;;;;;;29.74;25.80;94045.88;4997645;28;9649;-60
2023/06/15 02:37:49;;;;;;;;;;;;;;;29.70;26.40;94043.44;4984995;28;7473;-60
2023/06/15 02:40:15;;;;;;;;;;;;;;;29.72;25.32;94043.66;4978228;28;9011;-61
2023/06/15 02:42:42;;;;;;;;;;;;;;;29.73;26.12;94045.13;4977537;28;7311;-60
2023/06/15 02:45:08;;;;;;;;;;;;;;;29.71;25.70;94044.19;4974974;28;7024;-60
2023/06/15 02:47:35;;;;;;;;;;;;;;;29.70;26.49;94045.47;4977037;28;7220;-60
2023/06/15 02:50:05;;;;;;;;;;;;;;;29.70;25.50;94045.47;4984633;28;8876;-60
2023/06/15 02:52:40;;;;;;;;;;;;;;;29.65;26.34;94049.88;4993187;28;7071;-60
2023/06/15 02:55:07;;;;;;;;;;;;;;;29.66;25.76;94039.53;4972763;28;7626;-60
2023/06/15 02:57:41;;;;;;;;;;;;;;;29.66;26.23;94045.09;4998372;28;7055;-60
2023/06/15 03:00:13;;;;;;;;;;;;;;;29.67;25.44;94046.56;4981313;28;7242;-60
2023/06/15 03:02:43;;;;;;;;;;;;;;;29.65;26.03;94049.13;4982444;28;7040;-60
2023/06/15 03:05:18;;;;;;;;;;;;;;;29.64;26.05;94053.97;4987214;28;8733;-60
2023/06/15 03:07:52;;;;;;;;;;;;;;;29.61;25.74;94049.50;4979922;28;9112;-60
2023/06/15 03:10:26;;;;;;;;;;;;;;;29.61;26.19;94052.25;4985978;28;9104;-60
2023/06/15 03:12:56;;;;;;;;;;;;;;;29.61;25.54;94057.06;4982262;28;7144;-60
2023/06/15 03:15:23;;;;;;;;;;;;;;;29.59;25.70;94057.63;4983036;28;9442;-60
2023/06/15 03:17:51;;;;;;;;;;;;;;;29.59;25.63;94062.41;4982731;28;9162;-60
2023/06/15 03:20:46;;;;;;;;;;;;;;;29.58;26.04;94060.94;4996473;28;9006;-60
2023/06/15 03:23:13;;;;;;;;;;;;;;;29.57;25.93;94056.66;4979628;28;7140;-60
2023/06/15 03:25:39;;;;;;;;;;;;;;;29.58;25.78;94066.47;4962390;28;9082;-60
2023/06/15 03:28:38;;;;;;;;;;;;;;;29.58;25.49;94066.47;4970036;28;7453;-60
2023/06/15 03:31:18;;;;;;;;;;;;;;;29.56;25.77;94071.81;4909678;29;7466;-60
2023/06/15 03:34:02;;;;;;;;;;;;;;;29.55;26.06;94067.56;4925304;29;7313;-60
2023/06/15 03:36:39;;;;;;;;;;;;;;;29.56;26.14;94069.78;4925298;29;8774;-60
2023/06/15 03:39:36;;;;;;;;;;;;;;;29.56;26.80;94075.31;4925167;29;7453;-60
2023/06/15 03:42:11;;;;;;;;;;;;;;;29.55;26.34;94073.84;4822649;29;8425;-61
2023/06/15 03:44:40;;;;;;;;;;;;;;;29.56;26.57;94080.13;4831255;29;7154;-60
2023/06/15 03:47:21;;;;;;;;;;;;;;;29.56;26.47;94074.56;4815156;29;7287;-60
2023/06/15 03:49:57;;;;;;;;;;;;;;;29.55;26.01;94078.66;4828887;29;9188;-60
2023/06/15 03:52:33;;;;;;;;;;;;;;;29.51;26.04;94075.50;4834626;29;7465;-60
2023/06/15 03:55:33;;;;;;;;;;;;;;;29.52;26.64;94088.78;4824978;29;7395;-60
2023/06/15 03:57:59;;;;;;;;;;;;;;;29.49;26.11;94081.56;4832622;29;6865;-60
2023/06/15 04:00:25;;;;;;;;;;;;;;;29.53;26.28;94092.31;4828716;29;7165;-60
2023/06/15 04:02:52;;;;;;;;;;;;;;;29.54;26.46;94091.00;4819401;29;9275;-60
2023/06/15 04:05:23;;;;;;;;;;;;;;;29.50;26.16;94093.38;4828462;29;7194;-60
2023/06/15 04:07:49;;;;;;;;;;;;;;;29.51;26.13;94100.44;4876814;29;7256;-60
2023/06/15 04:10:24;;;;;;;;;;;;;;;29.48;26.36;94082.84;4906491;29;9016;-60
2023/06/15 04:12:50;;;;;;;;;;;;;;;29.52;25.86;94093.59;4908215;29;7263;-60
2023/06/15 04:15:17;;;;;;;;;;;;;;;29.53;26.15;94100.63;4907300;29;9008;-60
2023/06/15 04:17:44;;;;;;;;;;;;;;;29.51;25.93;94100.44;4921888;28;7276;-60
2023/06/15 04:20:14;;;;;;;;;;;;;;;29.48;26.79;94101.50;4980514;28;7274;-60
2023/06/15 04:22:43;;;;;;;;;;;;;;;29.47;26.19;94114.59;4976341;28;7282;-60
2023/06/15 04:25:09;;;;;;;;;;;;;;;29.47;26.29;94117.38;4977488;28;7012;-60
2023/06/15 04:27:44;;;;;;;;;;;;;;;29.49;26.39;94116.84;4994393;28;7442;-60
2023/06/15 04:30:16;;;;;;;;;;;;;;;29.48;26.13;94123.66;4979012;28;9390;-60
2023/06/15 04:32:46;;;;;;;;;;;;;;;29.48;26.84;94123.66;4982900;28;7534;-60
2023/06/15 04:35:17;;;;;;;;;;;;;;;29.48;26.81;94121.66;4977068;28;9230;-61
2023/06/15 04:37:45;;;;;;;;;;;;;;;29.46;26.21;94123.47;4979760;28;7266;-60
2023/06/15 04:40:12;;;;;;;;;;;;;;;29.47;26.71;94138.81;4983067;28;8868;-61
2023/06/15 04:42:40;;;;;;;;;;;;;;;29.45;27.08;94142.13;4995375;28;8992;-60
2023/06/15 04:45:09;;;;;;;;;;;;;;;29.44;26.77;94134.34;4984691;28;8486;-61
2023/06/15 04:47:38;;;;;;;;;;;;;;;29.46;26.67;94137.34;4979114;28;7220;-60
2023/06/15 04:50:07;;;;;;;;;;;;;;;29.45;26.21;94138.63;4986457;28;7322;-60
2023/06/15 04:52:33;;;;;;;;;;;;;;;29.44;26.73;94139.91;4973320;28;8824;-60
2023/06/15 04:55:01;;;;;;;;;;;;;;;29.44;27.73;94146.19;4975865;28;7011;-60
2023/06/15 04:57:28;;;;;;;;;;;;;;;29.44;26.98;94151.00;4955902;28;7242;-60
2023/06/15 04:59:56;;;;;;;;;;;;;;;29.45;27.92;94146.94;4971130;28;9033;-60
2023/06/15 05:02:24;;;;;;;;;;;;;;;29.46;27.65;94148.41;4957317;28;7057;-60
2023/06/15 05:04:50;;;;;;;;;;;;;;;29.42;27.44;94146.00;4979220;28;7024;-60
2023/06/15 05:07:16;;;;;;;;;;;;;;;29.42;28.14;94142.47;4978577;28;7044;-60
2023/06/15 05:09:48;;;;;;;;;;;;;;;29.45;27.64;94153.22;4979895;28;7027;-60
2023/06/15 05:12:16;;;;;;;;;;;;;;;29.44;27.71;94148.97;4978403;28;7634;-61
2023/06/15 05:14:42;;;;;;;;;;;;;;;29.45;27.13;94147.66;4993784;28;8227;-61
2023/06/15 05:17:08;;;;;;;;;;;;;;;29.46;27.56;94163.03;4994148;28;7448;-61
2023/06/15 05:19:36;;;;;;;;;;;;;;;29.47;27.61;94149.91;4993667;28;7365;-60
2023/06/15 05:22:03;;;;;;;;;;;;;;;29.42;27.14;94148.00;4974724;28;9362;-61
2023/06/15 05:24:29;;;;;;;;;;;;;;;29.43;27.29;94157.81;4981726;28;7109;-60
2023/06/15 05:26:56;;;;;;;;;;;;;;;29.43;26.90;94163.34;4976116;28;7275;-60
2023/06/15 05:29:24;;;;;;;;;;;;;;;29.43;27.50;94157.81;4977204;28;9470;-60
2023/06/15 05:31:50;;;;;;;;;;;;;;;29.46;27.90;94160.25;4992016;28;7180;-60
2023/06/15 05:34:18;;;;;;;;;;;;;;;29.44;27.27;94156.53;4979640;28;7031;-60
2023/06/15 05:36:44;;;;;;;;;;;;;;;29.44;28.02;94162.06;4978767;28;9403;-60
2023/06/15 05:39:10;;;;;;;;;;;;;;;29.44;27.78;94162.81;4995696;28;8772;-61
2023/06/15 05:41:38;;;;;;;;;;;;;;;29.46;27.46;94165.03;4976198;28;7012;-60
2023/06/15 05:44:07;;;;;;;;;;;;;;;29.46;28.10;94167.81;4986993;28;9031;-61
2023/06/15 05:46:33;;;;;;;;;;;;;;;29.43;27.52;94171.66;4985619;28;9038;-61
2023/06/15 05:48:59;;;;;;;;;;;;;;;29.43;27.60;94171.66;4978515;28;7065;-61
2023/06/15 05:51:26;;;;;;;;;;;;;;;29.44;27.23;94170.38;4979145;28;7064;-61
2023/06/15 05:53:52;;;;;;;;;;;;;;;29.45;28.20;94180.19;4980578;28;7044;-61
2023/06/15 05:56:24;;;;;;;;;;;;;;;29.44;27.92;94179.44;4976231;28;6954;-61
2023/06/15 05:58:54;;;;;;;;;;;;;;;29.44;27.83;94182.22;4986599;28;7199;-61
2023/06/15 06:01:23;;;;;;;;;;;;;;;29.43;27.01;94172.41;4983715;28;6984;-61
2023/06/15 06:03:49;;;;;;;;;;;;;;;29.41;27.20;94177.75;4985141;28;7283;-62
2023/06/15 06:06:16;;;;;;;;;;;;;;;29.39;27.96;94180.31;4994289;28;7185;-61
2023/06/15 06:08:49;;;;;;;;;;;;;;;29.41;27.61;94177.75;4976497;28;7030;-61
2023/06/15 06:11:15;;;;;;;;;;;;;;;29.44;27.15;94184.25;4992624;28;7414;-61
2023/06/15 06:13:44;;;;;;;;;;;;;;;29.46;27.12;94189.97;4974680;28;8964;-60
2023/06/15 06:16:11;;;;;;;;;;;;;;;29.44;27.35;94187.75;4977052;28;7108;-60
2023/06/15 06:18:40;;;;;;;;;;;;;;;29.44;27.44;94185.00;4978376;28;9128;-61
2023/06/15 06:21:07;;;;;;;;;;;;;;;29.44;27.89;94193.31;4976982;28;9222;-60
2023/06/15 06:23:36;;;;;;;;;;;;;;;29.44;28.32;94178.69;4974250;28;7233;-61
2023/06/15 06:26:02;;;;;;;;;;;;;;;29.42;28.87;94187.56;4977544;28;7134;-61
2023/06/15 06:28:31;;;;;;;;;;;;;;;29.43;28.71;94185.50;4978375;28;7284;-60
2023/06/15 06:31:01;;;;;;;;;;;;;;;29.44;28.91;94187.75;4991759;28;7428;-61
2023/06/15 06:33:29;;;;;;;;;;;;;;;29.44;29.03;94187.75;4990892;28;7328;-61
2023/06/15 06:35:55;;;;;;;;;;;;;;;29.44;28.63;94190.53;4978399;28;7073;-60
2023/06/15 06:38:21;;;;;;;;;;;;;;;29.45;28.79;94197.53;4976451;28;9093;-61
2023/06/15 06:40:48;;;;;;;;;;;;;;;29.46;29.84;94203.84;4977202;28;7006;-60
2023/06/15 06:43:16;;;;;;;;;;;;;;;29.45;28.66;94197.53;4977826;28;8968;-61
2023/06/15 06:45:42;;;;;;;;;;;;;;;29.43;29.04;94193.81;4978288;28;8324;-60
2023/06/15 06:48:13;;;;;;;;;;;;;;;29.43;28.50;94196.59;4980747;28;7228;-60
2023/06/15 06:50:40;;;;;;;;;;;;;;;29.41;29.04;94194.38;4982802;28;7129;-60
2023/06/15 06:53:05;;;;;;;;;;;;;;;29.41;29.18;94197.16;4976626;28;8438;-60
2023/06/15 06:55:34;;;;;;;;;;;;;;;29.42;29.23;94197.91;4979183;28;7003;-60
2023/06/15 06:58:02;;;;;;;;;;;;;;;29.38;29.22;94194.72;4976873;28;7295;-61
2023/06/15 07:00:28;;;;;;;;;;;;;;;29.42;29.49;94198.66;4983842;28;8834;-61
2023/06/15 07:02:57;;;;;;;;;;;;;;;29.42;28.97;94200.66;4976992;28;7195;-61
2023/06/15 07:05:24;;;;;;;;;;;;;;;29.42;28.83;94204.19;4993034;28;8552;-61
2023/06/15 07:07:58;;;;;;;;;;;;;;;29.43;29.19;94204.91;4982054;28;7008;-61
2023/06/15 07:10:24;;;;;;;;;;;;;;;29.44;29.41;94203.63;4988723;28;8233;-61
2023/06/15 07:13:10;;;;;;;;;;;;;;;29.43;28.98;94204.91;4984326;28;7222;-61
2023/06/15 07:15:42;;;;;;;;;;;;;;;29.43;28.51;94204.91;4989358;28;7291;-61
2023/06/15 07:18:39;;;;;;;;;;;;;;;29.45;28.87;94208.63;4998110;28;7198;-61
2023/06/15 07:21:19;;;;;;;;;;;;;;;29.45;28.52;94202.38;4976624;28;7067;-61
2023/06/15 07:23:55;;;;;;;;;;;;;;;29.45;28.86;94202.38;4962440;28;9041;-61
2023/06/15 07:26:30;;;;;;;;;;;;;;;29.44;29.04;94200.88;4967928;28;7194;-61
2023/06/15 07:29:06;;;;;;;;;;;;;;;29.45;28.18;94202.38;4964231;28;7035;-61
2023/06/15 07:31:32;;;;;;;;;;;;;;;29.45;28.67;94202.38;4972028;28;7041;-61
2023/06/15 07:33:58;;;;;;;;;;;;;;;29.42;28.70;94195.88;4974011;28;9036;-61
2023/06/15 07:36:28;;;;;;;;;;;;;;;29.45;28.99;94202.38;4966542;28;7445;-61
2023/06/15 07:39:19;;;;;;;;;;;;;;;29.46;28.05;94203.84;4966023;28;7259;-60
2023/06/15 07:41:55;;;;;;;;;;;;;;;29.45;28.87;94202.38;4966201;28;9206;-61
2023/06/15 07:44:40;;;;;;;;;;;;;;;29.44;28.85;94212.69;4967675;28;7189;-60
2023/06/15 07:47:32;;;;;;;;;;;;;;;29.45;28.51;94207.91;4969905;28;7258;-61
2023/06/15 07:50:12;;;;;;;;;;;;;;;29.44;28.50;94212.69;4966592;28;7100;-60
2023/06/15 07:53:12;;;;;;;;;;;;;;;29.41;28.93;94208.22;4973736;28;7020;-60
2023/06/15 07:55:48;;;;;;;;;;;;;;;29.43;29.22;94210.44;4897399;29;7155;-60
2023/06/15 07:58:24;;;;;;;;;;;;;;;29.42;28.55;94209.72;4895849;29;7301;-61
2023/06/15 08:01:03;;;;;;;;;;;;;;;29.44;28.91;94204.38;4869750;29;9414;-61
2023/06/15 08:03:38;;;;;;;;;;;;;;;29.41;28.29;94197.16;4888528;29;7055;-61
2023/06/15 08:06:32;;;;;;;;;;;;;;;29.42;28.33;94206.22;4890181;29;7302;-61
2023/06/15 08:09:00;;;;;;;;;;;;;;;29.41;28.85;94204.72;4888365;29;7232;-61
2023/06/15 08:11:28;;;;;;;;;;;;;;;29.39;28.84;94201.72;4885031;29;7096;-61
2023/06/15 08:14:07;;;;;;;;;;;;;;;29.41;27.96;94196.41;4881097;29;9199;-61
2023/06/15 08:16:46;;;;;;;;;;;;;;;29.41;28.96;94201.94;4886367;29;8765;-60
2023/06/15 08:19:47;;;;;;;;;;;;;;;29.42;28.61;94203.44;4872685;29;7885;-61
2023/06/15 08:22:28;;;;;;;;;;;;;;;29.37;28.34;94196.00;4854391;29;7515;-60
2023/06/15 08:25:06;;;;;;;;;;;;;;;29.44;28.73;94203.63;4872571;29;9186;-61
2023/06/15 08:27:33;;;;;;;;;;;;;;;29.43;27.95;94193.81;4873348;29;9034;-60
2023/06/15 08:30:23;;;;;;;;;;;;;;;29.43;28.15;94202.88;4861315;29;9431;-60
2023/06/15 08:33:18;;;;;;;;;;;;;;;29.44;28.13;94198.09;4930999;28;8699;-61
2023/06/15 08:35:57;;;;;;;;;;;;;;;29.42;28.88;94203.44;4927295;29;7113;-60
2023/06/15 08:38:35;;;;;;;;;;;;;;;29.39;28.99;94199.72;4926237;29;7910;-61
2023/06/15 08:41:11;;;;;;;;;;;;;;;29.41;28.88;94199.91;4932648;29;7020;-61
2023/06/15 08:44:15;;;;;;;;;;;;;;;29.45;28.66;94207.91;4928448;29;9060;-61
2023/06/15 08:46:56;;;;;;;;;;;;;;;29.44;29.00;94207.16;4867927;29;7352;-61
2023/06/15 08:49:25;;;;;;;;;;;;;;;29.45;28.82;94203.09;4868709;29;7480;-61
2023/06/15 08:51:54;;;;;;;;;;;;;;;29.46;29.11;94209.38;4863827;29;7206;-60
2023/06/15 08:54:21;;;;;;;;;;;;;;;29.46;28.62;94206.59;4854417;29;9117;-61
2023/06/15 08:56:47;;;;;;;;;;;;;;;29.46;28.46;94203.84;4863225;29;9474;-61
2023/06/15 08:59:16;;;;;;;;;;;;;;;29.46;28.30;94201.06;4829945;29;7240;-61
2023/06/15 09:01:46;;;;;;;;;;;;;;;29.37;28.80;94202.28;4830911;29;9237;-61
2023/06/15 09:04:13;;;;;;;;;;;;;;;29.37;29.09;94202.28;4830176;29;9023;-61
2023/06/15 09:06:40;;;;;;;;;;;;;;;29.42;28.47;94195.88;4845318;29;7301;-61
2023/06/15 09:09:12;;;;;;;;;;;;;;;29.46;28.69;94196.28;4847618;29;7044;-61
2023/06/15 09:11:40;;;;;;;;;;;;;;;29.47;28.37;94199.78;4872224;29;9095;-61
2023/06/15 09:14:10;;;;;;;;;;;;;;;29.47;28.29;94206.06;4902846;29;7255;-61
2023/06/15 09:16:37;;;;;;;;;;;;;;;29.47;28.51;94200.50;4918511;29;7046;-61
2023/06/15 09:19:20;;;;;;;;;;;;;;;29.50;28.02;94209.78;4921311;28;7230;-61
2023/06/15 09:21:53;;;;;;;;;;;;;;;29.48;28.23;94204.78;4982096;28;7026;-61
2023/06/15 09:24:45;;;;;;;;;;;;;;;29.49;27.80;94208.31;4988231;28;8700;-61
2023/06/15 09:27:16;;;;;;;;;;;;;;;29.48;29.54;94206.81;4985438;28;7055;-61
2023/06/15 09:30:25;;;;;;;;;;;;;;;29.50;28.16;94212.53;5003622;28;9001;-60
2023/06/15 09:32:57;;;;;;;;;;;;;;;29.50;29.08;94210.53;4982691;28;9418;-61
2023/06/15 09:35:24;;;;;;;;;;;;;;;29.52;28.19;94207.22;4988408;28;7019;-61
2023/06/15 09:38:00;;;;;;;;;;;;;;;29.51;28.30;94209.25;4991078;28;9001;-61
2023/06/15 09:40:56;;;;;;;;;;;;;;;29.54;28.89;94210.19;4984088;28;9204;-61
2023/06/15 09:43:22;;;;;;;;;;;;;;;29.53;28.06;94203.16;4976606;28;9388;-61
2023/06/15 09:46:19;;;;;;;;;;;;;;;29.53;28.57;94209.47;4966069;28;7354;-60
2023/06/15 09:48:57;;;;;;;;;;;;;;;29.55;28.31;94206.13;4963450;28;7253;-61
2023/06/15 09:51:28;;;;;;;;;;;;;;;29.55;27.89;94203.38;4981529;28;9351;-61
2023/06/15 09:53:55;;;;;;;;;;;;;;;29.55;28.24;94208.91;4976092;28;7227;-61
2023/06/15 09:56:23;;;;;;;;;;;;;;;29.60;27.79;94216.34;4982811;28;7057;-61
2023/06/15 09:59:02;;;;;;;;;;;;;;;29.60;27.51;94214.28;4976776;28;7016;-60
2023/06/15 10:01:47;;;;;;;;;;;;;;;29.60;28.02;94208.03;4964758;28;7697;-61
2023/06/15 10:04:40;;;;;;;;;;;;;;;29.59;27.97;94206.53;4977571;28;8643;-60
2023/06/15 10:07:14;;;;;;;;;;;;;;;29.58;28.04;94208.56;4968555;28;7323;-60
2023/06/15 10:09:59;;;;;;;;;;;;;;;29.60;27.88;94211.53;4975345;28;7100;-59
2023/06/15 10:13:02;;;;;;;;;;;;;;;29.59;27.98;94207.28;4967222;28;7326;-60
2023/06/15 10:15:31;;;;;;;;;;;;;;;29.58;28.43;94216.16;4913874;29;9057;-60
2023/06/15 10:18:02;;;;;;;;;;;;;;;29.58;28.39;94210.59;4898022;29;9414;-60
2023/06/15 10:20:30;;;;;;;;;;;;;;;29.59;28.15;94206.53;4897517;29;9087;-60
2023/06/15 10:23:07;;;;;;;;;;;;;;;29.58;28.15;94210.59;4894454;29;7249;-59
2023/06/15 10:25:59;;;;;;;;;;;;;;;29.60;28.46;94208.03;4913482;29;7237;-60
2023/06/15 10:28:28;;;;;;;;;;;;;;;29.58;28.47;94205.06;4887077;29;7231;-59
2023/06/15 10:31:25;;;;;;;;;;;;;;;29.58;28.30;94199.53;4897446;29;7224;-59
2023/06/15 10:34:07;;;;;;;;;;;;;;;29.60;29.06;94211.53;4915426;29;9019;-60
2023/06/15 10:36:51;;;;;;;;;;;;;;;29.60;29.41;94208.03;4894588;29;7116;-60
2023/06/15 10:39:35;;;;;;;;;;;;;;;29.60;29.20;94202.50;4908912;29;7115;-60
2023/06/15 10:42:08;;;;;;;;;;;;;;;29.61;28.41;94204.72;4890947;29;7052;-59
2023/06/15 10:45:20;;;;;;;;;;;;;;;29.65;27.64;94204.34;4898085;29;7029;-59
2023/06/15 10:47:51;;;;;;;;;;;;;;;29.64;28.23;94209.19;4904132;29;7459;-60
2023/06/15 10:54:22;;;;;;;;;;;;;;;29.64;28.28;94213.97;4959722;28;9063;-60
2023/06/15 10:56:57;;;;;;;;;;;;;;;29.64;27.11;94213.97;4925736;29;7051;-59
2023/06/15 10:59:54;;;;;;;;;;;;;;;29.65;26.74;94207.88;4927207;29;7186;-60
2023/06/15 11:02:59;;;;;;;;;;;;;;;29.64;27.26;94202.88;4924772;29;7505;-60
2023/06/15 11:05:44;;;;;;;;;;;;;;;29.67;25.55;94202.53;4888320;29;8692;-60
2023/06/15 11:08:30;;;;;;;;;;;;;;;29.68;26.88;94208.84;4889700;29;8227;-60
2023/06/15 11:11:11;;;;;;;;;;;;;;;29.70;26.73;94209.78;4879009;29;7239;-60
2023/06/15 11:13:55;;;;;;;;;;;;;;;29.73;25.91;94205.91;4888077;29;9031;-60
2023/06/15 11:17:07;;;;;;;;;;;;;;;29.73;25.46;94205.19;4886291;29;7048;-60
2023/06/15 11:19:57;;;;;;;;;;;;;;;29.76;25.89;94204.09;4876102;29;7025;-60
2023/06/15 11:22:26;;;;;;;;;;;;;;;29.76;26.30;94206.88;4887399;29;8709;-59
2023/06/15 11:25:06;;;;;;;;;;;;;;;29.76;25.88;94204.09;4887066;29;7261;-60
2023/06/15 11:27:36;;;;;;;;;;;;;;;29.77;25.68;94208.38;4888305;29;7250;-60
2023/06/15 11:30:14;;;;;;;;;;;;;;;29.78;26.17;94207.81;4880837;29;8810;-60
2023/06/15 11:32:45;;;;;;;;;;;;;;;29.80;26.20;94205.25;4914454;29;7562;-60
2023/06/15 11:35:11;;;;;;;;;;;;;;;29.80;25.54;94207.28;4925753;29;8680;-61
2023/06/15 11:37:40;;;;;;;;;;;;;;;29.82;26.64;94201.94;4908080;29;9352;-60
2023/06/15 11:40:08;;;;;;;;;;;;;;;29.83;26.38;94206.19;4926218;28;9132;-61
2023/06/15 11:42:41;;;;;;;;;;;;;;;29.83;27.00;94203.44;4983898;28;7224;-60
2023/06/15 11:45:23;;;;;;;;;;;;;;;29.82;26.41;94201.22;4986703;28;7033;-61
2023/06/15 11:47:52;;;;;;;;;;;;;;;29.81;26.38;94203.22;4986264;28;9409;-60
2023/06/15 11:50:25;;;;;;;;;;;;;;;29.84;26.34;94207.66;4988637;28;7531;-61
2023/06/15 11:53:04;;;;;;;;;;;;;;;29.84;26.53;94202.13;4986899;28;7212;-60
2023/06/15 11:55:47;;;;;;;;;;;;;;;29.88;26.86;94201.81;4999810;28;7675;-61
2023/06/15 11:58:15;;;;;;;;;;;;;;;29.89;25.95;94206.78;5000768;28;7320;-60
2023/06/15 12:00:41;;;;;;;;;;;;;;;29.91;26.39;94209.00;4999166;28;7087;-60
2023/06/15 12:03:36;;;;;;;;;;;;;;;29.91;26.85;94204.22;4984124;28;9073;-61
2023/06/15 12:06:02;;;;;;;;;;;;;;;29.92;25.87;94196.66;4984752;28;8493;-61
2023/06/15 12:08:28;;;;;;;;;;;;;;;29.94;25.96;94194.06;4988152;28;8986;-61
2023/06/15 12:10:59;;;;;;;;;;;;;;;29.93;25.83;94190.53;4997837;28;8259;-61
2023/06/15 12:13:27;;;;;;;;;;;;;;;29.95;26.53;94195.56;4996911;28;7133;-60
2023/06/15 12:15:58;;;;;;;;;;;;;;;29.93;26.06;94198.88;4997181;28;7318;-61
2023/06/15 12:18:25;;;;;;;;;;;;;;;29.94;26.95;94192.03;4986165;28;7284;-61
2023/06/15 12:20:51;;;;;;;;;;;;;;;29.97;26.19;94196.50;4982707;28;7162;-60
2023/06/15 12:23:33;;;;;;;;;;;;;;;29.97;26.61;94196.50;4983536;28;9176;-60
2023/06/15 12:26:03;;;;;;;;;;;;;;;29.98;27.75;94191.69;4982280;28;7256;-61
2023/06/15 12:28:32;;;;;;;;;;;;;;;29.97;26.63;94187.44;4992666;28;7056;-61
2023/06/15 12:31:10;;;;;;;;;;;;;;;29.97;27.41;94198.53;4975896;28;7219;-60
2023/06/15 12:33:39;;;;;;;;;;;;;;;29.93;26.86;94190.53;4991322;28;9123;-61
2023/06/15 12:36:10;;;;;;;;;;;;;;;29.93;27.51;94198.88;4974395;28;8534;-60
2023/06/15 12:38:37;;;;;;;;;;;;;;;29.95;26.81;94184.47;4970341;28;7233;-61
2023/06/15 12:41:13;;;;;;;;;;;;;;;29.99;26.79;94182.09;4978818;28;7294;-61
2023/06/15 12:43:55;;;;;;;;;;;;;;;30.03;26.25;94185.25;4992161;28;9397;-61
2023/06/15 12:46:28;;;;;;;;;;;;;;;30.04;26.42;94172.88;4984459;28;7157;-61
2023/06/15 12:49:00;;;;;;;;;;;;;;;30.04;27.06;94170.09;4982225;28;8754;-61
2023/06/15 12:51:40;;;;;;;;;;;;;;;30.09;26.59;94185.84;4987097;28;7118;-61
2023/06/15 12:54:08;;;;;;;;;;;;;;;30.08;26.46;94182.31;4980299;28;7439;-61
2023/06/15 12:56:39;;;;;;;;;;;;;;;30.11;27.53;94183.25;4976955;28;7198;-61
2023/06/15 12:59:05;;;;;;;;;;;;;;;30.09;27.61;94183.06;5000401;28;8744;-60
2023/06/15 13:01:49;;;;;;;;;;;;;;;30.08;27.62;94189.91;4977534;28;7213;-61
2023/06/15 13:04:20;;;;;;;;;;;;;;;30.09;27.66;94177.53;4988937;28;9455;-61
2023/06/15 13:06:55;;;;;;;;;;;;;;;30.10;26.97;94174.19;4985247;28;7037;-60
2023/06/15 13:09:23;;;;;;;;;;;;;;;30.12;27.87;94177.19;4971629;28;7181;-61
2023/06/15 13:12:25;;;;;;;;;;;;;;;30.15;27.03;94180.88;4976940;28;9079;-60
2023/06/15 13:14:54;;;;;;;;;;;;;;;30.17;26.94;94172.75;4898316;29;7026;-60
2023/06/15 13:17:23;;;;;;;;;;;;;;;30.19;26.92;94170.91;4914164;29;9345;-61
2023/06/15 13:19:49;;;;;;;;;;;;;;;30.25;27.23;94176.34;4899565;29;7242;-61
2023/06/15 13:22:15;;;;;;;;;;;;;;;30.25;27.53;94177.09;4914196;29;7060;-61
2023/06/15 13:24:41;;;;;;;;;;;;;;;30.23;27.70;94173.38;4902940;29;9429;-61
2023/06/15 13:27:09;;;;;;;;;;;;;;;30.24;27.34;94167.25;4914161;29;7308;-61
2023/06/15 13:29:54;;;;;;;;;;;;;;;30.27;27.99;94168.94;4904341;29;7892;-61
2023/06/15 13:32:40;;;;;;;;;;;;;;;30.29;27.77;94171.16;4916845;29;8612;-60
2023/06/15 13:35:25;;;;;;;;;;;;;;;30.30;27.95;94173.38;4913456;29;7958;-60
2023/06/15 13:38:04;;;;;;;;;;;;;;;30.32;27.15;94170.13;4910681;29;9141;-60